<?xml version='1.0' encoding='UTF-8'?>
<gpx xmlns="http://www.topografix.com/GPX/1/1" creator="www.balnam.be" version="1.1" xmlns:xsi="http://www.w3.org/2001/XMLSchema-instance" xsi:schemaLocation="http://www.topografix.com/GPX/1/1 http://www.topografix.com/GPX/1/1/gpx.xsd">
<trk>
<name>louou1</name>
<cmt>v</cmt>
<desc>Oupeye Chemin n°1 </desc>
<link href="https://chemins.be/oupeye/chemin/1"/><trkseg>
<trkpt lat="50.712644" lon="5.648699"><time>2026-05-02T19:03:19Z</time></trkpt>
<trkpt lat="50.713389" lon="5.650605"><time>2026-05-02T19:13:19Z</time></trkpt>
<trkpt lat="50.713751" lon="5.652386"><time>2026-05-02T19:23:19Z</time></trkpt>
</trkseg>
</trk>
<trk>
<name>louou12</name>
<cmt>v</cmt>
<desc>Oupeye Chemin n°12 </desc>
<link href="https://chemins.be/oupeye/chemin/12"/><trkseg>
<trkpt lat="50.706855" lon="5.655430"><time>2026-05-02T19:03:19Z</time></trkpt>
<trkpt lat="50.706910" lon="5.656481"><time>2026-05-02T19:13:19Z</time></trkpt>
<trkpt lat="50.706715" lon="5.657776"><time>2026-05-02T19:23:19Z</time></trkpt>
<trkpt lat="50.706738" lon="5.658173"><time>2026-05-02T19:33:19Z</time></trkpt>
<trkpt lat="50.706602" lon="5.658520"><time>2026-05-02T19:43:19Z</time></trkpt>
</trkseg>
</trk>
<trk>
<name>louou14</name>
<cmt>v</cmt>
<desc>Oupeye Sentier n°14 Rue des Champs / rue des Champs / Avenue Reine Astrid / Rue Cockroux</desc>
<link href="https://chemins.be/oupeye/sentier/14"/><trkseg>
<trkpt lat="50.715119" lon="5.624280"><time>2026-05-02T19:03:19Z</time></trkpt>
<trkpt lat="50.714664" lon="5.625627"><time>2026-05-02T19:13:19Z</time></trkpt>
<trkpt lat="50.714363" lon="5.626880"><time>2026-05-02T19:23:19Z</time></trkpt>
<trkpt lat="50.713918" lon="5.628086"><time>2026-05-02T19:33:19Z</time></trkpt>
<trkpt lat="50.711811" lon="5.631373"><time>2026-05-02T19:43:19Z</time></trkpt>
</trkseg></trk>
<trk>
<name>louou14</name>
<cmt>r</cmt>
<desc>Oupeye Sentier n°14 Rue des Champs / rue des Champs / Avenue Reine Astrid / Rue Cockroux</desc>
<link href="https://chemins.be/oupeye/sentier/14"/><trkseg>
<trkpt lat="50.711811" lon="5.631373"><time>2026-05-02T19:43:19Z</time></trkpt>
<trkpt lat="50.711301" lon="5.632220"><time>2026-05-02T19:53:19Z</time></trkpt>
</trkseg></trk>
<trk>
<name>louou14</name>
<cmt>q</cmt>
<desc>Oupeye Sentier n°14 Rue des Champs / rue des Champs / Avenue Reine Astrid / Rue Cockroux</desc>
<link href="https://chemins.be/oupeye/sentier/14"/><trkseg>
<trkpt lat="50.711301" lon="5.632220"><time>2026-05-02T19:53:19Z</time></trkpt>
<trkpt lat="50.710437" lon="5.634198"><time>2026-05-02T20:03:19Z</time></trkpt>
</trkseg></trk>
<trk>
<name>louou14</name>
<cmt>v</cmt>
<desc>Oupeye Sentier n°14 Rue des Champs / rue des Champs / Avenue Reine Astrid / Rue Cockroux</desc>
<link href="https://chemins.be/oupeye/sentier/14"/><trkseg>
<trkpt lat="50.710437" lon="5.634198"><time>2026-05-02T20:03:19Z</time></trkpt>
<trkpt lat="50.710051" lon="5.635081"><time>2026-05-02T20:13:19Z</time></trkpt>
</trkseg></trk>
<trk>
<name>louou14</name>
<cmt>s</cmt>
<desc>Oupeye Sentier n°14 Rue des Champs / rue des Champs / Avenue Reine Astrid / Rue Cockroux</desc>
<link href="https://chemins.be/oupeye/sentier/14"/><trkseg>
<trkpt lat="50.710051" lon="5.635081"><time>2026-05-02T20:13:19Z</time></trkpt>
<trkpt lat="50.709515" lon="5.636648"><time>2026-05-02T20:23:19Z</time></trkpt>
</trkseg></trk>
<trk>
<name>louou14</name>
<cmt>r</cmt>
<desc>Oupeye Sentier n°14 Rue des Champs / rue des Champs / Avenue Reine Astrid / Rue Cockroux</desc>
<link href="https://chemins.be/oupeye/sentier/14"/><trkseg>
<trkpt lat="50.709515" lon="5.636648"><time>2026-05-02T20:23:19Z</time></trkpt>
<trkpt lat="50.709678" lon="5.642306"><time>2026-05-02T20:33:19Z</time></trkpt>
</trkseg></trk>
<trk>
<name>louou14</name>
<cmt>q</cmt>
<desc>Oupeye Sentier n°14 Rue des Champs / rue des Champs / Avenue Reine Astrid / Rue Cockroux</desc>
<link href="https://chemins.be/oupeye/sentier/14"/><trkseg>
<trkpt lat="50.709678" lon="5.642306"><time>2026-05-02T20:33:19Z</time></trkpt>
<trkpt lat="50.709945" lon="5.644222"><time>2026-05-02T20:43:19Z</time></trkpt>
<trkpt lat="50.709861" lon="5.644623"><time>2026-05-02T20:53:19Z</time></trkpt>
</trkseg></trk>
<trk>
<name>louou14</name>
<cmt>r</cmt>
<desc>Oupeye Sentier n°14 Rue des Champs / rue des Champs / Avenue Reine Astrid / Rue Cockroux</desc>
<link href="https://chemins.be/oupeye/sentier/14"/><trkseg>
<trkpt lat="50.709861" lon="5.644623"><time>2026-05-02T20:53:19Z</time></trkpt>
<trkpt lat="50.710239" lon="5.644970"><time>2026-05-02T21:03:19Z</time></trkpt>
<trkpt lat="50.710493" lon="5.652662"><time>2026-05-02T21:13:19Z</time></trkpt>
<trkpt lat="50.710427" lon="5.653821"><time>2026-05-02T21:23:19Z</time></trkpt>
<trkpt lat="50.710694" lon="5.654408"><time>2026-05-02T21:33:19Z</time></trkpt>
</trkseg></trk>
<trk>
<name>louou14</name>
<cmt>q</cmt>
<desc>Oupeye Sentier n°14 Rue des Champs / rue des Champs / Avenue Reine Astrid / Rue Cockroux</desc>
<link href="https://chemins.be/oupeye/sentier/14"/><trkseg>
<trkpt lat="50.710694" lon="5.654408"><time>2026-05-02T21:33:19Z</time></trkpt>
<trkpt lat="50.710785" lon="5.655008"><time>2026-05-02T21:43:19Z</time></trkpt>
</trkseg>
</trk>
<trk>
<name>louou17</name>
<cmt>v</cmt>
<desc>Oupeye Chemin n°17 </desc>
<link href="https://chemins.be/oupeye/chemin/17"/><trkseg>
<trkpt lat="50.716717" lon="5.653446"><time>2026-05-02T19:03:19Z</time></trkpt>
<trkpt lat="50.717991" lon="5.650151"><time>2026-05-02T19:13:19Z</time></trkpt>
</trkseg></trk>
<trk>
<name>louou17</name>
<cmt>q</cmt>
<desc>Oupeye Chemin n°17 </desc>
<link href="https://chemins.be/oupeye/chemin/17"/><trkseg>
<trkpt lat="50.717991" lon="5.650151"><time>2026-05-02T19:13:19Z</time></trkpt>
<trkpt lat="50.718663" lon="5.649051"><time>2026-05-02T19:23:19Z</time></trkpt>
</trkseg>
</trk>
<trk>
<name>louou18</name>
<cmt>r</cmt>
<desc>Oupeye Sentier n°18 Rue du Château d'Eau</desc>
<link href="https://chemins.be/oupeye/sentier/18"/><trkseg>
<trkpt lat="50.704629" lon="5.648410"><time>2026-05-02T19:03:19Z</time></trkpt>
<trkpt lat="50.701313" lon="5.644966"><time>2026-05-02T19:13:19Z</time></trkpt>
<trkpt lat="50.700620" lon="5.643904"><time>2026-05-02T19:23:19Z</time></trkpt>
</trkseg>
</trk>
<trk>
<name>louou19</name>
<cmt>v</cmt>
<desc>Oupeye Sentier n°19 </desc>
<link href="https://chemins.be/oupeye/sentier/19"/><trkseg>
<trkpt lat="50.707111" lon="5.641038"><time>2026-05-02T19:03:19Z</time></trkpt>
<trkpt lat="50.706403" lon="5.642972"><time>2026-05-02T19:13:19Z</time></trkpt>
<trkpt lat="50.705403" lon="5.645980"><time>2026-05-02T19:23:19Z</time></trkpt>
<trkpt lat="50.705113" lon="5.646823"><time>2026-05-02T19:33:19Z</time></trkpt>
<trkpt lat="50.704633" lon="5.648219"><time>2026-05-02T19:43:19Z</time></trkpt>
</trkseg>
</trk>
<trk>
<name>louou3</name>
<cmt>v</cmt>
<desc>Oupeye Chemin n°3 Voye de Vignis</desc>
<link href="https://chemins.be/oupeye/chemin/3"/><trkseg>
<trkpt lat="50.703356" lon="5.637045"><time>2026-05-02T19:03:19Z</time></trkpt>
<trkpt lat="50.703454" lon="5.635835"><time>2026-05-02T19:13:19Z</time></trkpt>
<trkpt lat="50.704041" lon="5.634522"><time>2026-05-02T19:23:19Z</time></trkpt>
<trkpt lat="50.704444" lon="5.632325"><time>2026-05-02T19:33:19Z</time></trkpt>
</trkseg>
</trk>
<trk>
<name>louou4</name>
<cmt>v</cmt>
<desc>Oupeye Chemin n°4 Rue Baloe</desc>
<link href="https://chemins.be/oupeye/chemin/4"/><trkseg>
<trkpt lat="50.716611" lon="5.626798"><time>2026-05-02T19:03:19Z</time></trkpt>
<trkpt lat="50.716572" lon="5.627137"><time>2026-05-02T19:13:19Z</time></trkpt>
<trkpt lat="50.716540" lon="5.627547"><time>2026-05-02T19:23:19Z</time></trkpt>
<trkpt lat="50.716554" lon="5.627958"><time>2026-05-02T19:33:19Z</time></trkpt>
<trkpt lat="50.716540" lon="5.628368"><time>2026-05-02T19:43:19Z</time></trkpt>
<trkpt lat="50.716552" lon="5.628935"><time>2026-05-02T19:53:19Z</time></trkpt>
<trkpt lat="50.716540" lon="5.629275"><time>2026-05-02T20:03:19Z</time></trkpt>
<trkpt lat="50.716556" lon="5.629445"><time>2026-05-02T20:13:19Z</time></trkpt>
<trkpt lat="50.716650" lon="5.629858"><time>2026-05-02T20:23:19Z</time></trkpt>
<trkpt lat="50.716763" lon="5.630201"><time>2026-05-02T20:33:19Z</time></trkpt>
<trkpt lat="50.716852" lon="5.630331"><time>2026-05-02T20:43:19Z</time></trkpt>
<trkpt lat="50.718389" lon="5.634564"><time>2026-05-02T20:53:19Z</time></trkpt>
<trkpt lat="50.719122" lon="5.635922"><time>2026-05-02T21:03:19Z</time></trkpt>
</trkseg>
</trk>
<trk>
<name>louou5</name>
<cmt>v</cmt>
<desc>Oupeye Chemin n°5 Rue duTiège / rue du Tiège</desc>
<link href="https://chemins.be/oupeye/chemin/5"/><trkseg>
<trkpt lat="50.721214" lon="5.626878"><time>2026-05-02T19:03:19Z</time></trkpt>
<trkpt lat="50.720719" lon="5.627743"><time>2026-05-02T19:13:19Z</time></trkpt>
<trkpt lat="50.720045" lon="5.628561"><time>2026-05-02T19:23:19Z</time></trkpt>
<trkpt lat="50.718508" lon="5.629285"><time>2026-05-02T19:33:19Z</time></trkpt>
<trkpt lat="50.717607" lon="5.630351"><time>2026-05-02T19:43:19Z</time></trkpt>
<trkpt lat="50.716949" lon="5.630475"><time>2026-05-02T19:53:19Z</time></trkpt>
<trkpt lat="50.715964" lon="5.630916"><time>2026-05-02T20:03:19Z</time></trkpt>
<trkpt lat="50.714773" lon="5.631366"><time>2026-05-02T20:13:19Z</time></trkpt>
</trkseg></trk>
<trk>
<name>louou5</name>
<cmt>r</cmt>
<desc>Oupeye Chemin n°5 Rue duTiège / rue du Tiège</desc>
<link href="https://chemins.be/oupeye/chemin/5"/><trkseg>
<trkpt lat="50.714773" lon="5.631366"><time>2026-05-02T20:13:19Z</time></trkpt>
<trkpt lat="50.714084" lon="5.631885"><time>2026-05-02T20:23:19Z</time></trkpt>
<trkpt lat="50.713263" lon="5.632925"><time>2026-05-02T20:33:19Z</time></trkpt>
</trkseg>
</trk>
<trk>
<name>louou6bis</name>
<cmt>v</cmt>
<desc>Oupeye Chemin n°6bis </desc>
<link href="https://chemins.be/oupeye/chemin/6bis"/><trkseg>
<trkpt lat="50.710668" lon="5.643419"><time>2026-05-02T19:03:19Z</time></trkpt>
<trkpt lat="50.711186" lon="5.643703"><time>2026-05-02T19:13:19Z</time></trkpt>
<trkpt lat="50.713964" lon="5.646228"><time>2026-05-02T19:23:19Z</time></trkpt>
<trkpt lat="50.715943" lon="5.648604"><time>2026-05-02T19:33:19Z</time></trkpt>
<trkpt lat="50.717947" lon="5.650155"><time>2026-05-02T19:43:19Z</time></trkpt>
</trkseg>
</trk>
<trk>
<name>louou7</name>
<cmt>v</cmt>
<desc>Oupeye Chemin n°7 </desc>
<link href="https://chemins.be/oupeye/chemin/7"/><trkseg>
<trkpt lat="50.708740" lon="5.633177"><time>2026-05-02T19:03:19Z</time></trkpt>
<trkpt lat="50.707988" lon="5.630104"><time>2026-05-02T19:13:19Z</time></trkpt>
</trkseg>
</trk>
<trk>
<name>louou8</name>
<cmt>v</cmt>
<desc>Oupeye Chemin n°8 </desc>
<link href="https://chemins.be/oupeye/chemin/8"/><trkseg>
<trkpt lat="50.721690" lon="5.623947"><time>2026-05-02T19:03:19Z</time></trkpt>
<trkpt lat="50.721310" lon="5.623267"><time>2026-05-02T19:13:19Z</time></trkpt>
</trkseg></trk>
<trk>
<name>louou8</name>
<cmt>d</cmt>
<desc>Oupeye Chemin n°8 </desc>
<link href="https://chemins.be/oupeye/chemin/8"/><trkseg>
<trkpt lat="50.721310" lon="5.623267"><time>2026-05-02T19:13:19Z</time></trkpt>
<trkpt lat="50.720884" lon="5.623195"><time>2026-05-02T19:23:19Z</time></trkpt>
<trkpt lat="50.720012" lon="5.622488"><time>2026-05-02T19:33:19Z</time></trkpt>
<trkpt lat="50.719369" lon="5.623131"><time>2026-05-02T19:43:19Z</time></trkpt>
<trkpt lat="50.719006" lon="5.622666"><time>2026-05-02T19:53:19Z</time></trkpt>
<trkpt lat="50.718757" lon="5.623010"><time>2026-05-02T20:03:19Z</time></trkpt>
</trkseg>
</trk>
<trk>
<name>louou80</name>
<cmt>q</cmt>
<desc>Oupeye Sentier n°80 </desc>
<link href="https://chemins.be/oupeye/sentier/80"/><trkseg>
<trkpt lat="50.711824" lon="5.635504"><time>2026-05-02T19:03:19Z</time></trkpt>
<trkpt lat="50.711071" lon="5.636186"><time>2026-05-02T19:13:19Z</time></trkpt>
</trkseg></trk>
<trk>
<name>louou80</name>
<cmt>s</cmt>
<desc>Oupeye Sentier n°80 </desc>
<link href="https://chemins.be/oupeye/sentier/80"/><trkseg>
<trkpt lat="50.711071" lon="5.636186"><time>2026-05-02T19:13:19Z</time></trkpt>
<trkpt lat="50.709541" lon="5.636598"><time>2026-05-02T19:23:19Z</time></trkpt>
</trkseg>
</trk>
<trk>
<name>louou9</name>
<cmt>v</cmt>
<desc>Oupeye Chemin n°9 Rue des Bouleaux</desc>
<link href="https://chemins.be/oupeye/chemin/9"/><trkseg>
<trkpt lat="50.715206" lon="5.628672"><time>2026-05-02T19:03:19Z</time></trkpt>
<trkpt lat="50.714825" lon="5.628167"><time>2026-05-02T19:13:19Z</time></trkpt>
<trkpt lat="50.714337" lon="5.626709"><time>2026-05-02T19:23:19Z</time></trkpt>
<trkpt lat="50.712856" lon="5.624843"><time>2026-05-02T19:33:19Z</time></trkpt>
</trkseg>
</trk>
<trk>
<name>lououi1</name>
<cmt>v</cmt>
<desc>Oupeye Sentier n°i1 </desc>
<link href="https://chemins.be/oupeye/sentier/i1"/><trkseg>
<trkpt lat="50.706513" lon="5.650118"><time>2026-05-02T19:03:19Z</time></trkpt>
<trkpt lat="50.706493" lon="5.650216"><time>2026-05-02T19:13:19Z</time></trkpt>
<trkpt lat="50.706491" lon="5.650400"><time>2026-05-02T19:23:19Z</time></trkpt>
<trkpt lat="50.706499" lon="5.650570"><time>2026-05-02T19:33:19Z</time></trkpt>
<trkpt lat="50.706074" lon="5.650743"><time>2026-05-02T19:43:19Z</time></trkpt>
<trkpt lat="50.705903" lon="5.650795"><time>2026-05-02T19:53:19Z</time></trkpt>
<trkpt lat="50.705703" lon="5.650974"><time>2026-05-02T20:03:19Z</time></trkpt>
<trkpt lat="50.705538" lon="5.651281"><time>2026-05-02T20:13:19Z</time></trkpt>
<trkpt lat="50.705443" lon="5.651689"><time>2026-05-02T20:23:19Z</time></trkpt>
</trkseg>
</trk>
<trk>
<name>lououi2</name>
<cmt>v</cmt>
<desc>Oupeye Chemin n°i2 Rue Panorama</desc>
<link href="https://chemins.be/oupeye/chemin/i2"/><trkseg>
<trkpt lat="50.702239" lon="5.645943"><time>2026-05-02T19:03:19Z</time></trkpt>
<trkpt lat="50.701733" lon="5.646994"><time>2026-05-02T19:13:19Z</time></trkpt>
<trkpt lat="50.701437" lon="5.647439"><time>2026-05-02T19:23:19Z</time></trkpt>
</trkseg>
</trk>
<trk>
<name>lououi3</name>
<cmt>r</cmt>
<desc>Oupeye Chemin n°i3 </desc>
<link href="https://chemins.be/oupeye/chemin/i3"/><trkseg>
<trkpt lat="50.709630" lon="5.635635"><time>2026-05-02T19:03:19Z</time></trkpt>
<trkpt lat="50.711334" lon="5.637434"><time>2026-05-02T19:13:19Z</time></trkpt>
</trkseg>
</trk>
<trk>
<name>lououi4</name>
<cmt>b</cmt>
<desc>Oupeye Chemin n°i4 </desc>
<link href="https://chemins.be/oupeye/chemin/i4"/><trkseg>
<trkpt lat="50.711530" lon="5.636726"><time>2026-05-02T19:03:19Z</time></trkpt>
<trkpt lat="50.709801" lon="5.634799"><time>2026-05-02T19:13:19Z</time></trkpt>
</trkseg>
</trk>
<trk>
<name>lououi5</name>
<cmt>v</cmt>
<desc>Oupeye Sentier n°i5 </desc>
<link href="https://chemins.be/oupeye/sentier/i5"/><trkseg>
<trkpt lat="50.706625" lon="5.644542"><time>2026-05-02T19:03:19Z</time></trkpt>
<trkpt lat="50.706088" lon="5.643977"><time>2026-05-02T19:13:19Z</time></trkpt>
</trkseg>
</trk>
</gpx>